Timeline UpdatesTrip UpdatesNews PostsPvt Posts♥♥Travel TipsAdmin PostsConv PostsFollowed PostsChat RequestsBlog PostsPNR Posts

Disclaimer
Search
 
 
Sat Nov 1, 2014 16:04:51 ISTHomeTrainsΣChainsAtlasPNRForumGalleryNewsFAQTripsMembersLoginFeedback
No Recent News for this Train
Other Trains in the News **new
Latest...
One Sleeper and unreserved coach for Mumbai is attached from Nandurbar. These coaches are attached to 59442 Ahmedabad Mumbai passenger at Surat.
Mon Apr 18, 2011 (09:18PM)
⇐ Return Journey: Train# 59441-Slip

59076-Slip/Bhusaval -Mumbai Passenger Slip(Via Surat)

Time-Table HAS CHANGED.
Sep 04 2014 (10:12PM)
Change Departure Station:
Change Arrival Station:
Post a Train Travel TipPost a Train Travel Tip **new
Post a Comment/Question/Picture/VideoPost a Comment/Question/Picture/Video
Pantry/Catering
???
Loco/Rake Reversals
ST/Surat (4);
RSA - Rake Sharing
Rake/Coach Composition
Loco
News    PNR    Forum    Time-Table    Availability    Fare Chart    Map    Arr/Dep History    Trips    Gallery    ΣChains    X/O    Timeline    
Travel Time: 19h 50m    73 halts    Distance: 598 km    Avg Speed: 30 km/hr
Type: Passenger
Zone: WR/Western
Departs @ 08:45 (Avg 13m late)
Platform# ???
SMTWTFS
Bhusaval Junction/BSL 
Arrives @ 04:35 +1 night
Platform# 5
SMTWTFS
Mumbai Central/BCT 

73 halts. 104 intermediate Stations between Bhusaval Junction and Mumbai Central

Show ALL intermediate Stations  Show Old Time-Table

#TrkCodeStation NameX/OArrivesAvgDepartsAvgHaltPFDay#KmSpeedElevZoneAddress
1/==/BSLBhusaval Junction (8)»  -08:45+13--10.058208mCRBhusaval 425201, Maharashtra
2/==/BDIBhadli (2)  08:58+1409:00+132m--112.630211mCRBhadli, Maharashtra
3/==/JLJalgaon Junction (4)  09:23+2309:25+232m2124.137213mCRJalgaon 425001, Maharashtra
4%==%PLDPaldhi (2)  09:43+2309:45+252m--135.253208mWRPaldhi, Maharashtra
5%==%CHLKChavalkhedeX  09:58+2510:00+272m--146.727196mWRState Highway 185, Maharashtra
6%==/DXGDharangaon (2)  10:16+2110:18+212m--153.857217mWRDharangaon, Maharashtra
7/==/BHNEBhone (2)X  10:26-10:28-2m--161.550196mWRState Highway 185, Maharashtra
8/==/TKHETakarkhede (1)  10:35+2010:37+202m1167.343203mWRState Highway 6, Maharashtra
9/==%ANAmalner (2)  10:53+1810:55+192m1178.740188mWRAmalner, Maharashtra
10%==%BRTKBhortex  11:07+1911:09+202m--186.853180mWRVadhoda, Maharashtra
11%==%PDPPadse  11:18+1811:20+182m--194.748181mWRDhule, Maharashtra
12%==%BEWBetavad (1)  11:27-11:29-2m11100.258178mWRState Highway 6, Maharashtra
13%==%NDNNardana (1)  11:36+2111:38+202m11107.042184mWRNardana, Maharashtra
14%==%HOLHol (1)  11:45+2011:47+192m11112.063185mWRState Highway 6, Maharashtra
15%==%SNKSindkheda (1)X  11:55+2211:57+242m11120.343178mWRState Highway 11, Maharashtra
16%==%SNSLSonshelu (1)  12:06-12:08-2m11126.748185mWRMSH1, Maharashtra
17%==%VKHVikhran (1)X  12:14+2112:16+262m11131.533176mWRMSH1, Maharashtra
18%=-/DDEDondaicha (2)  12:31+2212:33+222m11139.755163mWRDondaicha, Maharashtra
19/--/RNLRanala (1)X  12:46+2112:48+272m11151.733164mWRState Highway 6, Maharashtra
20/--/TISITisi (1)  13:05+1913:07+202m11161.231185mWRState Highway 7, Maharashtra
21/-=%CUEChoupale (1) new halt!!X  13:22+1213:24+122m--1168.915208mWRNehru Nagar, Maharashtra
22/-=%NDBNandurbar (3)XO  13:45+514:30+445m--1174.160203mWRNandurbar, Maharashtra
23%==%DWDDhekwad (1)  14:39+1014:41+92m11183.148209mWRState Highway 5, Maharashtra
24%==%KBHKhandbara (1)X  14:58+1815:00+182m11196.753198mWRKhandbara, Maharashtra
25%==%KHTGKhatgaon (1)  15:10+1915:12+202m11205.553178mWRState Highway 5, Maharashtra
26%==/CPDChinchpada (1)  15:23+2415:25+302m11215.348178mWRGangapur, Maharashtra
27/==/KFFKolda (1)  15:33+3215:35+302m11221.639160mWRGangapur, Maharashtra
28/==/NWUNavapur (2)  15:51+2415:53+232m--1232.055124mWRNavapur, Gujarat
29/==/BBAIBhadbhunja (1)  16:05+2716:07+262m11243.125126mWRGujarat 394375 ?, Gujarat
30/==/LKKDLakkad Kot (1)  16:19+2416:21+232m11248.036122mWRGujarat 394375 ?, Gujarat
31/==/USDUkai Songadh (2)  16:33+2116:35+382m11255.239139mWRSongadh, Gujarat
32/==/DSDDosvada (1)  16:42-16:44-2m11259.817121mWRNational Highway 6, Gujarat
33/==/KKRDKikakui Road (1)O  16:53+3116:55+442m11262.416114mWRGujarat 394650 ?, Gujarat
34/==%VYAVyara (2)  17:38+1417:40+172m11273.94390mWRVyara, Gujarat
35%==%LTVLotarva (1)  17:49+1917:51+182m11280.44657mWRSankr Main Rd, Gujarat
36%==%KRAIKaher (1)X  17:55-17:57-2m11283.54055mWRKaher, Gujarat
37%==%MIDMadhi (1)  18:05+1818:07+182m11288.93245mWRMadhi, Gujarat
38%==%MGRLMangrolla (1)  18:17-18:19-2m11294.23336mWRPipariya, Gujarat
39%==%TBVTimbarva (1)  18:24+1518:26+142m11296.93435mWRTimberva, Gujarat
40%==%BIYBardoli (2)  18:38+1318:40+202m--1303.72135mWRNear Bardoli Sugar Factory Bardoli, Gujarat
41%==%GGARGangadhara (1)X  18:58+1319:00+232m11309.91527mWRKareli, Gujarat
42%==%BGMRBagumra (1) new halt!!  19:21-19:23-2m--1315.04422mWRNational Highway 6, Gujarat
43%==%CHMChalthan (1)  19:29+719:31+62m11319.45023mWRKadodra, Gujarat
44%==%NOLNiyol (1)  19:37-19:39-2m11324.42818mWRSurat, Gujarat
45/==%UDNUdhna Junction (3) new halt!!XO  19:53-19:55-2m21330.91616mWRUdhna 394210, Gujarat
46/==/STSurat (4)XOO20:10+321:30+2:3080m41334.93819mWRSurat 395001, Gujarat
47/==/BHETBhestan (2)X  21:44-21:46-2m21343.74913mWRSurat, Gujarat
48/==/SCHSachin (3)XO  21:53-21:55-2m--1349.46611mWRKansad Road Sachin, Gujarat
49/==/MRLMaroli (3)  22:01-22:03-2m--1356.16315mWRMaroli, Gujarat
50/==/NVSNavsari (3)X  22:11-22:13-2m--1364.54614mWRNavsari, Gujarat
51/==/VDHVedchha (3)XO  22:24-22:26-2m--1372.95113mWRNavsari, Gujarat
52/==/ACLAncheli (2)X  22:30-22:32-2m--1376.34620mWRNavsari, Gujarat
53/==/AMLAmalsad (3)  22:37-22:39-2m--1380.15612mWRAmalsad, Gujarat
54/==/BIMBilimora Junction (4)O  22:45-22:47-2m--1385.76811mWRBilimora, Gujarat
55/==/DGIDungri (3)X  22:55-22:57-2m--1394.72320mWRNH 8, Gujarat
56/==/BLValsad (3)X  23:20-23:30-10m31403.66415mWRValsad, Gujarat
57/==/PADPardi (3)X  23:40-23:42-2m--1414.36019mWRValsad, Gujarat
58/==/UVDUdvada (3)  23:48-23:50-2m--1420.35218mWRUdvada, Gujarat
59/==/VAPIVapi (3)XO  00:01-00:02-1m--2429.94827mWRVapi, Gujarat
60/==/KEBKarambeli (2)X  00:10-00:11-1m--2436.34829mWRNational Highway 8, Gujarat
61/==/BLDBhilad (3)X  00:17-00:19-2m--2441.16933mWRBhilad, Gujarat
62/==/SJNSanjan (3)X  00:29-00:31-2m--2452.75422mWRSanjan, Gujarat
63/==/UBRUmbargam Road (3)X  00:37-00:39-2m--2458.16130mWRUmbergaon, Gujarat
64/==/GVDGholvad (4)XO  00:48-00:50-2m--2467.24214mWRGholvad, Maharashtra
65/==/DRDDahanu Road (5)XO  01:06-01:08-2m--2478.45712mWRDahanu, Maharashtra
66/==/VGNVangaon (3)XO  01:21-01:23-2m--2490.76311mWRDist. Palghar, Maharashtra
67/==/BORBoisar (3)X  01:32-01:34-2m32500.14817mWRBoisar Tel.no-02525-266626, Maharashtra
68/==/PLGPalghar (3)X  01:48-01:50-2m--2511.44619mWRPalghar, Maharashtra
69/==/KLVKelve Road (3)O  02:01-02:03-2m--2519.84310mWRDist. Palghar, Maharashtra
70/==/SAHSaphale (2)O  02:12-02:14-2m22526.2348mWRDist. Palghar, Maharashtra
71/==/VRVirar (8)  02:43-02:45-2m--2542.5286mWRDist. Palghar, Maharashtra
72/==/BSRVasai Road (7)  03:03-03:05-2m52550.9587mWRVasai 401202, Maharashtra
73/==/BVIMumbai Borivali (8)  03:23-03:25-2m52568.33719mWRMumbai - 400092, Maharashtra
74/==/DDRMumbai Dadar Western (6)  04:03-04:05-2m52592.1126mWRMumbai, Maharashtra
75/==/BCTMumbai Central (9)•  04:35--52598.0-3mWRMumbai 400008, Maharashtra
Scroll to Top
Scroll to Bottom